Terminal Aerodrome Forecast
Issued by NWS Wilmington, NC

Home | Current Version | Previous Version | Text Only | Print | Product List | Glossary On
Versions: 1 2 3 4 5 6 7 8 9 10 11 12
000
FTUS42 KILM 220500
TAFILM
TAF
KILM 220525Z 2206/2306 34011KT P6SM BKN070
     FM221300 33014G22KT P6SM SCT070
     FM222200 32011KT P6SM SKC=

USA.gov is the U.S. government's official web portal to all federal, state and local government web resources and services.